Portland Hillsboro Airport
KHIO : rendu visible

Aérodrome :











RETROUVEZ-NOUS SUR...

 
LOGIN :

S'inscrire | Disclaimer

   EN    FR    IT 

 









Légende :    VFR   VFR Marginal   IFR   IFR Intensif   IFR Très Intensif
Visi : 
Plafond : 
>= 8 km
>= 3000ft
5 à 8 km
1000 à 3000 ft
1500m à 5 km
500 à 1000 ft
800 à 1500m
200 à 500 ft
< 800m
< 200 ft
Symboles :   Orages  Brouillard  Fortes neiges  Fortes précipitations  Vent > 20 kt






- Altitude de l'aérodrome : 208 ft


KHIO - Portland Hillsboro

DERNIER METAR :
  • 072353Z AUTO 05007KT 10SM FEW060 25/11 A3011 RMK AO2 SLP195 T02500111 10261 20189 57016

METARs EXPIRÉS :
  • 072253Z AUTO 35005KT 10SM BKN055 26/11 A3012 RMK AO2 SLP199 T02560106
  • 072153Z 10SM SCT050 24/11 A3014 RMK AO2 SLP206 T02390106

TAF KHIO
Valide du 08 à 00h jusqu'au 09 à 00h UTC


072322Z 0800/0824 34007KT P6SM SCT070
FM080800 VRB03KT P6SM SCT050 SCT100
FM081700 34011KT P6SM FEW050
FIR KZSE / Amérique du Nord



MET'MAP, la Météo Aéronautique d'un coup d'oeil ! - Copyright ORBIFLY Décembre 2007 - Disclaimer

ORBIFLY MET'MAP TEAM :

Programmation & Développement : Alexandra Zaïnal
Sur une idée originale de : Baudouin d'Aumeries
Assistance à la programmation : Marc-Olivier Méhu
Soutien technique & logistique : Manuel Goepfert

Contact : metmap@orbifly.com




SOURCES & CREDITS :

   NOAA       Earth
Advisory